createdAt,value
2023-02-19T00:01:53.375Z,6.70
2023-02-19T00:04:23.604Z,6.80
2023-02-19T00:06:51.826Z,6.63
2023-02-19T00:09:20.626Z,6.57
2023-02-19T00:11:50.131Z,5.88
2023-02-19T00:14:20.190Z,5.68
2023-02-19T00:16:49.054Z,6.50
2023-02-19T00:19:18.905Z,6.68
2023-02-19T00:21:46.661Z,6.07
2023-02-19T00:24:15.667Z,5.88
2023-02-19T00:26:44.691Z,5.68
2023-02-19T00:29:16.587Z,5.22
2023-02-19T00:31:44.967Z,6.38
2023-02-19T00:34:14.891Z,5.90
2023-02-19T00:36:43.468Z,5.95
2023-02-19T00:39:15.171Z,6.07
2023-02-19T00:41:42.848Z,5.93
2023-02-19T00:44:12.186Z,5.93
2023-02-19T00:46:42.957Z,6.13
2023-02-19T00:49:16.020Z,6.80
2023-02-19T00:51:43.772Z,6.43
2023-02-19T00:54:12.015Z,6.55
2023-02-19T00:56:39.805Z,5.90
2023-02-19T00:59:07.475Z,6.68
2023-02-19T01:01:35.403Z,5.95
2023-02-19T01:04:06.575Z,6.03
2023-02-19T01:06:35.608Z,6.30
2023-02-19T01:09:04.387Z,6.40
2023-02-19T01:11:32.339Z,6.03
2023-02-19T01:14:01.532Z,5.90
2023-02-19T01:16:30.887Z,6.47
2023-02-19T01:19:00.245Z,6.30
2023-02-19T01:21:30.704Z,6.20
2023-02-19T01:23:59.975Z,6.10
2023-02-19T01:26:31.079Z,5.88
2023-02-19T01:28:59.966Z,6.18
2023-02-19T01:31:28.611Z,6.38
2023-02-19T01:33:58.941Z,5.80
2023-02-19T01:36:27.822Z,6.10
2023-02-19T01:38:57.910Z,6.05
2023-02-19T01:41:26.834Z,5.80
2023-02-19T01:44:02.542Z,5.90
2023-02-19T01:46:32.653Z,6.05
2023-02-19T01:49:06.399Z,6.10
2023-02-19T01:51:37.228Z,5.50
2023-02-19T01:54:10.845Z,5.45
2023-02-19T01:56:41.057Z,5.45
2023-02-19T01:59:09.537Z,5.40
2023-02-19T02:01:40.136Z,5.53
2023-02-19T02:04:10.877Z,5.38
2023-02-19T02:06:44.159Z,5.10
2023-02-19T02:09:33.985Z,5.13
2023-02-19T02:12:01.650Z,5.32
2023-02-19T02:14:33.739Z,5.10
2023-02-19T02:17:13.510Z,5.00
2023-02-19T02:20:12.140Z,5.13
2023-02-19T02:22:45.638Z,5.00
2023-02-19T02:25:41.674Z,4.88
2023-02-19T02:28:23.322Z,5.10
2023-02-19T02:30:57.146Z,5.25
2023-02-19T02:33:33.730Z,5.05
2023-02-19T02:36:08.525Z,5.35
2023-02-19T02:38:41.243Z,5.13
2023-02-19T02:41:09.994Z,5.78
2023-02-19T02:43:38.910Z,5.78
2023-02-19T02:46:11.597Z,5.85
2023-02-19T02:48:42.815Z,6.28
2023-02-19T02:51:16.974Z,5.50
2023-02-19T02:54:35.012Z,4.97
2023-02-19T02:57:09.544Z,5.93
2023-02-19T02:59:44.885Z,5.63
2023-02-19T03:02:18.845Z,5.80
2023-02-19T03:05:26.536Z,5.57
2023-02-19T03:07:57.508Z,5.60
2023-02-19T03:10:33.379Z,5.90
2023-02-19T03:13:24.353Z,6.07
2023-02-19T03:16:15.189Z,6.03
2023-02-19T03:19:07.589Z,6.50
2023-02-19T03:21:39.140Z,5.70
2023-02-19T03:24:30.512Z,6.90
2023-02-19T03:27:00.954Z,6.15
2023-02-19T03:29:38.499Z,6.28
2023-02-19T03:32:13.986Z,6.60
2023-02-19T03:34:49.705Z,6.38
2023-02-19T03:37:25.213Z,6.03
2023-02-19T03:39:55.147Z,6.00
2023-02-19T03:42:36.510Z,6.25
2023-02-19T03:45:20.665Z,5.93
2023-02-19T03:47:53.823Z,6.68
2023-02-19T03:50:28.863Z,6.63
2023-02-19T03:53:04.940Z,6.20
2023-02-19T03:55:41.607Z,6.57
2023-02-19T03:58:15.715Z,6.38
2023-02-19T04:00:50.753Z,6.55
2023-02-19T04:03:26.244Z,5.95
2023-02-19T04:06:01.040Z,5.85
2023-02-19T04:08:31.574Z,6.20
2023-02-19T04:11:04.712Z,6.22
2023-02-19T04:13:39.933Z,6.55
2023-02-19T04:16:11.156Z,6.30
2023-02-19T04:18:42.086Z,6.90
2023-02-19T04:21:12.056Z,6.88
2023-02-19T04:23:44.395Z,6.88
2023-02-19T04:26:14.413Z,6.97
2023-02-19T04:28:44.164Z,6.95
2023-02-19T04:31:12.847Z,6.25
2023-02-19T04:33:41.061Z,6.70
2023-02-19T04:36:12.807Z,7.25
2023-02-19T04:38:40.563Z,7.00
2023-02-19T04:41:09.946Z,7.30
2023-02-19T04:43:37.908Z,7.43
2023-02-19T04:46:06.026Z,6.82
2023-02-19T04:48:33.751Z,7.25
2023-02-19T04:51:05.319Z,7.57
2023-02-19T04:53:34.587Z,8.13
2023-02-19T04:56:07.697Z,8.05
2023-02-19T04:58:35.828Z,7.90
2023-02-19T05:01:04.057Z,8.23
2023-02-19T05:03:32.284Z,7.93
2023-02-19T05:06:03.810Z,7.88
2023-02-19T05:08:32.333Z,7.80
2023-02-19T05:11:02.058Z,7.72
2023-02-19T05:13:30.178Z,6.70
2023-02-19T05:15:59.774Z,6.72
2023-02-19T05:18:27.543Z,7.32
2023-02-19T05:20:55.425Z,7.13
2023-02-19T05:23:23.320Z,6.53
2023-02-19T05:25:50.956Z,6.97
2023-02-19T05:28:20.699Z,6.93
2023-02-19T05:30:51.052Z,7.18
2023-02-19T05:33:20.776Z,6.57
2023-02-19T05:35:51.143Z,7.15
2023-02-19T05:38:19.171Z,7.20
2023-02-19T05:40:47.493Z,8.10
2023-02-19T05:43:15.475Z,7.47
2023-02-19T05:45:44.597Z,7.78
2023-02-19T05:48:12.709Z,7.05
2023-02-19T05:50:40.539Z,6.40
2023-02-19T05:53:18.282Z,6.43
2023-02-19T05:55:46.022Z,6.43
2023-02-19T05:58:13.688Z,6.15
2023-02-19T06:00:41.589Z,6.20
2023-02-19T06:03:10.716Z,6.00
2023-02-19T06:05:38.773Z,6.10
2023-02-19T06:08:06.645Z,6.18
2023-02-19T06:10:36.760Z,5.60
2023-02-19T06:13:04.453Z,5.63
2023-02-19T06:15:32.189Z,5.55
2023-02-19T06:18:00.119Z,5.40
2023-02-19T06:20:29.826Z,4.93
2023-02-19T06:22:57.479Z,5.00
2023-02-19T06:25:25.261Z,5.13
2023-02-19T06:27:53.160Z,5.07
2023-02-19T06:30:21.224Z,5.00
2023-02-19T06:32:49.034Z,5.03
2023-02-19T06:35:16.868Z,4.93
2023-02-19T06:37:47.658Z,5.32
2023-02-19T06:40:15.365Z,4.57
2023-02-19T06:42:43.240Z,5.03
2023-02-19T06:45:11.093Z,4.18
2023-02-19T06:47:39.200Z,4.05
2023-02-19T06:50:07.448Z,4.15
2023-02-19T06:52:35.314Z,5.43
2023-02-19T06:55:05.175Z,4.35
2023-02-19T06:57:32.865Z,4.18
2023-02-19T07:00:00.892Z,4.15
2023-02-19T07:02:29.186Z,3.80
2023-02-19T07:04:56.899Z,4.03
2023-02-19T07:07:24.648Z,3.38
2023-02-19T07:09:52.391Z,3.20
2023-02-19T07:12:21.519Z,3.28
2023-02-19T07:14:49.208Z,3.53
2023-02-19T07:17:16.979Z,3.25
2023-02-19T07:19:44.623Z,2.95
2023-02-19T07:22:12.488Z,2.92
2023-02-19T07:24:41.361Z,2.83
2023-02-19T07:27:09.110Z,2.67
2023-02-19T07:29:38.952Z,2.83
2023-02-19T07:32:06.949Z,2.55
2023-02-19T07:34:34.680Z,2.58
2023-02-19T07:37:02.896Z,2.50
2023-02-19T07:39:30.731Z,2.63
2023-02-19T07:41:58.734Z,2.80
2023-02-19T07:44:27.843Z,2.58
2023-02-19T07:46:57.365Z,2.45
2023-02-19T07:49:25.028Z,2.80
2023-02-19T07:51:52.732Z,2.50
2023-02-19T07:54:20.583Z,2.63
2023-02-19T07:56:48.399Z,2.63
2023-02-19T07:59:19.355Z,2.83
2023-02-19T08:02:04.868Z,2.40
2023-02-19T08:04:34.152Z,2.78
2023-02-19T08:07:02.570Z,3.00
2023-02-19T08:09:30.404Z,3.20
2023-02-19T08:12:15.823Z,2.95
2023-02-19T08:14:43.681Z,3.40
2023-02-19T08:17:11.339Z,3.45
2023-02-19T08:19:41.536Z,3.35
2023-02-19T08:22:09.248Z,3.47
2023-02-19T08:24:37.823Z,3.80
2023-02-19T08:27:05.522Z,3.78
2023-02-19T08:29:34.947Z,3.60
2023-02-19T08:32:04.259Z,3.75
2023-02-19T08:34:32.003Z,3.00
2023-02-19T08:37:02.455Z,3.08
2023-02-19T08:39:30.211Z,2.90
2023-02-19T08:41:57.844Z,2.83
2023-02-19T08:44:25.540Z,3.03
2023-02-19T08:46:53.384Z,2.60
2023-02-19T08:49:21.065Z,2.60
2023-02-19T08:51:48.726Z,2.47
2023-02-19T08:54:17.726Z,2.70
2023-02-19T08:56:45.416Z,2.55
2023-02-19T08:59:13.144Z,2.67
2023-02-19T09:01:41.192Z,2.65
2023-02-19T09:04:12.797Z,2.97
2023-02-19T09:06:40.593Z,2.60
2023-02-19T09:09:08.275Z,2.88
2023-02-19T09:11:40.081Z,2.35
2023-02-19T09:14:08.417Z,2.45
2023-02-19T09:16:36.645Z,4.97
2023-02-19T09:19:05.254Z,4.35
2023-02-19T09:21:32.941Z,3.38
2023-02-19T09:24:00.925Z,2.80
2023-02-19T09:26:29.156Z,3.33
2023-02-19T09:28:58.353Z,3.15
2023-02-19T09:31:26.233Z,3.78
2023-02-19T09:33:53.957Z,3.90
2023-02-19T09:36:21.680Z,3.20
2023-02-19T09:38:49.591Z,3.03
2023-02-19T09:41:23.967Z,2.60
2023-02-19T09:43:52.464Z,2.35
2023-02-19T09:46:31.736Z,2.60
2023-02-19T09:49:06.167Z,2.45
2023-02-19T09:51:36.380Z,2.88
2023-02-19T09:54:07.479Z,2.78
2023-02-19T09:56:35.858Z,2.65
2023-02-19T09:59:05.014Z,2.72
2023-02-19T10:01:40.594Z,2.95
2023-02-19T10:04:08.407Z,2.75
2023-02-19T10:06:37.965Z,3.05
2023-02-19T10:09:21.171Z,2.92
2023-02-19T10:11:50.859Z,3.22
2023-02-19T10:14:23.077Z,3.47
2023-02-19T10:16:53.401Z,3.50
2023-02-19T10:19:21.144Z,11.02
2023-02-19T10:21:49.824Z,4.40
2023-02-19T10:24:22.409Z,2.55
2023-02-19T10:26:51.106Z,2.47
2023-02-19T10:29:19.839Z,2.58
2023-02-19T10:31:48.850Z,3.08
2023-02-19T10:34:22.169Z,2.45
2023-02-19T10:36:51.879Z,2.80
2023-02-19T10:39:39.834Z,3.20
2023-02-19T10:42:14.746Z,2.85
2023-02-19T10:44:45.944Z,2.20
2023-02-19T10:47:20.221Z,2.50
2023-02-19T10:49:52.396Z,2.58
2023-02-19T10:52:25.167Z,2.17
2023-02-19T10:54:54.083Z,2.50
2023-02-19T10:57:32.768Z,2.15
2023-02-19T11:00:04.480Z,2.67
2023-02-19T11:02:32.744Z,2.55
2023-02-19T11:05:14.745Z,2.35
2023-02-19T11:07:47.140Z,2.42
2023-02-19T11:10:26.838Z,1.70
2023-02-19T11:12:57.235Z,1.90
2023-02-19T11:15:28.697Z,2.00
2023-02-19T11:18:00.162Z,1.85
2023-02-19T11:20:32.235Z,2.22
2023-02-19T11:23:30.594Z,1.81
2023-02-19T11:26:39.685Z,2.00
2023-02-19T11:29:19.663Z,1.65
2023-02-19T11:32:19.331Z,1.30
2023-02-19T11:34:48.315Z,1.60
2023-02-19T11:37:19.133Z,0.95
2023-02-19T11:39:50.130Z,1.50
2023-02-19T11:42:33.288Z,1.50
2023-02-19T11:45:25.552Z,1.40
2023-02-19T11:48:28.625Z,1.60
2023-02-19T11:51:16.781Z,1.60
2023-02-19T11:53:49.955Z,1.30
2023-02-19T11:56:21.849Z,1.75
2023-02-19T11:59:02.241Z,1.38
2023-02-19T12:01:43.312Z,1.27
2023-02-19T12:04:37.429Z,2.67
2023-02-19T12:07:16.998Z,1.50
2023-02-19T12:10:05.231Z,1.33
2023-02-19T12:12:51.903Z,1.80
2023-02-19T12:15:37.588Z,1.63
2023-02-19T12:18:38.080Z,1.85
2023-02-19T12:21:19.818Z,1.40
2023-02-19T12:24:12.666Z,1.70
2023-02-19T12:26:48.428Z,1.65
2023-02-19T12:29:34.105Z,1.55
2023-02-19T12:32:29.286Z,2.55
2023-02-19T12:35:41.415Z,2.00
2023-02-19T12:38:21.150Z,1.52
2023-02-19T12:41:02.919Z,1.38
2023-02-19T12:43:35.280Z,1.65
2023-02-19T12:46:09.368Z,1.65
2023-02-19T12:48:46.414Z,1.60
2023-02-19T12:51:20.874Z,1.65
2023-02-19T12:53:56.380Z,1.85
2023-02-19T12:56:30.799Z,1.90
2023-02-19T12:59:08.034Z,1.48
2023-02-19T13:01:44.949Z,1.63
2023-02-19T13:04:23.598Z,1.92
2023-02-19T13:06:58.512Z,2.10
2023-02-19T13:09:34.018Z,2.05
2023-02-19T13:12:08.414Z,1.80
2023-02-19T13:14:42.898Z,1.92
2023-02-19T13:17:22.927Z,1.42
2023-02-19T13:19:56.839Z,1.85
2023-02-19T13:22:50.725Z,1.48
2023-02-19T13:25:20.652Z,1.73
2023-02-19T13:28:03.482Z,1.80
2023-02-19T13:30:47.116Z,2.33
2023-02-19T13:33:31.928Z,2.00
2023-02-19T13:36:10.196Z,1.63
2023-02-19T13:38:41.857Z,1.60
2023-02-19T13:41:20.363Z,1.63
2023-02-19T13:44:01.288Z,1.42
2023-02-19T13:46:39.744Z,1.83
2023-02-19T13:49:42.911Z,1.42
2023-02-19T13:52:38.474Z,4.57
2023-02-19T13:55:46.752Z,2.10
2023-02-19T13:58:55.109Z,0.77
2023-02-19T14:02:17.132Z,1.20
2023-02-19T14:04:53.711Z,1.17
2023-02-19T14:07:38.646Z,1.10
2023-02-19T14:10:14.468Z,1.40
2023-02-19T14:12:42.910Z,1.55
2023-02-19T14:15:43.888Z,1.77
2023-02-19T14:18:44.372Z,1.48
2023-02-19T14:21:26.155Z,1.42
2023-02-19T14:23:57.826Z,1.70
2023-02-19T14:26:31.480Z,1.70
2023-02-19T14:29:02.439Z,1.95
2023-02-19T14:31:32.390Z,1.75
2023-02-19T14:34:07.247Z,1.85
2023-02-19T14:36:48.836Z,1.80
2023-02-19T14:39:21.176Z,1.90
2023-02-19T14:41:52.793Z,1.67
2023-02-19T14:44:25.906Z,1.73
2023-02-19T14:46:58.834Z,1.35
2023-02-19T14:49:32.529Z,1.92
2023-02-19T14:52:09.774Z,2.00
2023-02-19T14:54:44.113Z,1.60
2023-02-19T14:57:18.926Z,1.73
2023-02-19T14:59:55.640Z,1.88
2023-02-19T15:02:25.914Z,2.25
2023-02-19T15:04:54.979Z,2.38
2023-02-19T15:07:27.845Z,2.17
2023-02-19T15:10:04.550Z,2.30
2023-02-19T15:12:47.741Z,1.52
2023-02-19T15:15:19.806Z,2.10
2023-02-19T15:17:48.178Z,1.70
2023-02-19T15:20:20.838Z,1.42
2023-02-19T15:22:50.948Z,1.55
2023-02-19T15:25:21.328Z,1.52
2023-02-19T15:27:49.579Z,1.20
2023-02-19T15:30:25.753Z,1.65
2023-02-19T15:32:55.229Z,2.10
2023-02-19T15:35:25.153Z,2.45
2023-02-19T15:37:56.217Z,2.40
2023-02-19T15:40:30.843Z,2.53
2023-02-19T15:43:00.065Z,1.50
2023-02-19T15:45:32.814Z,1.60
2023-02-19T15:48:08.902Z,1.70
2023-02-19T15:50:44.059Z,1.40
2023-02-19T15:53:18.047Z,1.38
2023-02-19T15:55:52.858Z,1.60
2023-02-19T15:58:29.054Z,1.48
2023-02-19T16:00:59.472Z,1.20
2023-02-19T16:03:29.166Z,1.60
2023-02-19T16:06:02.295Z,1.33
2023-02-19T16:08:32.982Z,1.38
2023-02-19T16:11:04.141Z,1.30
2023-02-19T16:13:34.069Z,1.58
2023-02-19T16:16:16.071Z,1.55
2023-02-19T16:18:47.413Z,2.38
2023-02-19T16:21:18.736Z,2.40
2023-02-19T16:23:55.016Z,2.38
2023-02-19T16:26:23.382Z,2.05
2023-02-19T16:28:53.438Z,2.33
2023-02-19T16:31:23.504Z,2.63
2023-02-19T16:33:52.016Z,2.92
2023-02-19T16:36:26.774Z,2.45
2023-02-19T16:39:20.966Z,2.35
2023-02-19T16:42:14.524Z,2.13
2023-02-19T16:44:43.499Z,1.83
2023-02-19T16:47:31.715Z,2.28
2023-02-19T16:50:03.196Z,2.60
2023-02-19T16:52:33.930Z,2.90
2023-02-19T16:55:04.964Z,1.92
2023-02-19T16:57:33.621Z,2.20
2023-02-19T17:00:01.715Z,2.13
2023-02-19T17:02:29.908Z,2.63
2023-02-19T17:04:57.817Z,2.05
2023-02-19T17:07:27.454Z,1.95
2023-02-19T17:09:55.451Z,2.20
2023-02-19T17:12:38.149Z,2.15
2023-02-19T17:15:09.924Z,2.10
2023-02-19T17:17:38.495Z,2.90
2023-02-19T17:20:43.724Z,3.33
2023-02-19T17:23:24.168Z,2.80
2023-02-19T17:25:53.040Z,2.08
2023-02-19T17:28:22.609Z,2.22
2023-02-19T17:30:51.524Z,2.25
2023-02-19T17:33:19.406Z,2.92
2023-02-19T17:35:47.185Z,2.97
2023-02-19T17:38:15.274Z,3.00
2023-02-19T17:40:45.281Z,3.60
2023-02-19T17:43:13.073Z,3.53
2023-02-19T17:45:42.279Z,3.38
2023-02-19T17:48:14.393Z,2.50
2023-02-19T17:50:42.686Z,2.42
2023-02-19T17:53:11.070Z,2.15
2023-02-19T17:55:38.762Z,2.42
2023-02-19T17:58:07.897Z,2.30
2023-02-19T18:00:36.568Z,2.38
2023-02-19T18:03:07.965Z,2.50
2023-02-19T18:05:35.874Z,2.60
2023-02-19T18:08:04.130Z,3.33
2023-02-19T18:10:32.632Z,2.00
2023-02-19T18:13:00.752Z,2.40
2023-02-19T18:15:28.610Z,2.38
2023-02-19T18:17:57.042Z,3.35
2023-02-19T18:20:28.072Z,4.28
2023-02-19T18:22:56.842Z,4.38
2023-02-19T18:25:25.159Z,3.30
2023-02-19T18:27:53.003Z,3.53
2023-02-19T18:30:22.790Z,3.35
2023-02-19T18:32:51.236Z,2.72
2023-02-19T18:35:20.915Z,2.70
2023-02-19T18:37:52.878Z,2.45
2023-02-19T18:40:21.638Z,2.90
2023-02-19T18:42:49.618Z,4.68
2023-02-19T18:45:17.690Z,6.85
2023-02-19T18:47:48.118Z,5.20
2023-02-19T18:50:16.139Z,4.05
2023-02-19T18:52:43.790Z,4.05
2023-02-19T18:55:15.441Z,4.13
2023-02-19T18:57:44.136Z,5.55
2023-02-19T19:00:17.019Z,5.72
2023-02-19T19:02:49.766Z,5.45
2023-02-19T19:05:22.818Z,4.47
2023-02-19T19:07:51.329Z,4.38
2023-02-19T19:10:21.225Z,4.35
2023-02-19T19:12:49.478Z,4.30
2023-02-19T19:15:19.144Z,3.65
2023-02-19T19:17:48.197Z,4.10
2023-02-19T19:21:19.095Z,4.28
2023-02-19T19:23:49.514Z,4.05
2023-02-19T19:26:19.637Z,5.28
2023-02-19T19:28:50.483Z,5.03
2023-02-19T19:31:25.617Z,4.32
2023-02-19T19:33:54.370Z,4.10
2023-02-19T19:36:24.018Z,3.97
2023-02-19T19:38:53.010Z,3.70
2023-02-19T19:41:23.109Z,3.80
2023-02-19T19:43:51.157Z,3.20
2023-02-19T19:46:20.862Z,3.83
2023-02-19T19:48:49.988Z,4.03
2023-02-19T19:51:20.840Z,3.35
2023-02-19T19:53:51.212Z,3.78
2023-02-19T19:56:25.137Z,4.22
2023-02-19T19:58:53.254Z,3.40
2023-02-19T20:01:23.106Z,3.35
2023-02-19T20:03:52.659Z,3.08
2023-02-19T20:06:28.366Z,3.75
2023-02-19T20:08:56.777Z,4.05
2023-02-19T20:11:26.356Z,4.57
2023-02-19T20:13:54.677Z,4.20
2023-02-19T20:16:27.391Z,4.50
2023-02-19T20:18:55.718Z,4.55
2023-02-19T20:21:24.085Z,4.20
2023-02-19T20:23:52.703Z,4.07
2023-02-19T20:26:27.729Z,3.85
2023-02-19T20:28:56.349Z,3.88
2023-02-19T20:31:25.013Z,3.80
2023-02-19T20:33:53.727Z,4.28
2023-02-19T20:36:22.804Z,9.13
2023-02-19T20:38:51.278Z,4.05
2023-02-19T20:41:22.097Z,3.70
2023-02-19T20:43:51.935Z,3.97
2023-02-19T20:46:22.234Z,4.55
2023-02-19T20:48:51.878Z,8.15
2023-02-19T20:51:21.868Z,5.03
2023-02-19T20:53:50.464Z,5.20
2023-02-19T20:56:19.455Z,3.83
2023-02-19T20:58:49.345Z,4.72
2023-02-19T21:01:19.709Z,4.93
2023-02-19T21:03:48.906Z,4.10
2023-02-19T21:06:16.932Z,4.35
2023-02-19T21:08:44.818Z,4.53
2023-02-19T21:11:12.867Z,6.90
2023-02-19T21:13:43.529Z,5.18
2023-02-19T21:16:12.027Z,4.97
2023-02-19T21:18:41.514Z,5.13
2023-02-19T21:21:10.328Z,5.32
2023-02-19T21:23:38.329Z,6.32
2023-02-19T21:26:07.715Z,5.53
2023-02-19T21:28:40.868Z,4.72
2023-02-19T21:31:12.402Z,5.13
2023-02-19T21:33:41.794Z,4.80
2023-02-19T21:36:12.272Z,4.53
2023-02-19T21:38:40.585Z,4.93
2023-02-19T21:41:11.711Z,4.60
2023-02-19T21:43:39.725Z,4.50
2023-02-19T21:46:18.688Z,5.03
2023-02-19T21:48:50.018Z,4.18
2023-02-19T21:51:18.476Z,4.20
2023-02-19T21:53:47.302Z,4.10
2023-02-19T21:56:23.539Z,4.57
2023-02-19T21:58:51.440Z,4.05
2023-02-19T22:01:21.514Z,6.80
2023-02-19T22:03:52.284Z,6.45
2023-02-19T22:06:24.322Z,4.40
2023-02-19T22:08:52.250Z,4.32
2023-02-19T22:11:20.236Z,4.03
2023-02-19T22:13:49.236Z,4.57
2023-02-19T22:16:17.169Z,4.43
2023-02-19T22:18:48.328Z,4.10
2023-02-19T22:21:18.915Z,4.72
2023-02-19T22:23:47.570Z,4.57
2023-02-19T22:26:20.179Z,4.90
2023-02-19T22:28:49.051Z,4.30
2023-02-19T22:31:18.292Z,4.13
2023-02-19T22:33:46.643Z,4.40
2023-02-19T22:36:19.153Z,4.25
2023-02-19T22:38:48.467Z,4.05
2023-02-19T22:41:18.154Z,5.22
2023-02-19T22:43:46.800Z,4.80
2023-02-19T22:46:17.469Z,5.20
2023-02-19T22:48:45.729Z,4.35
2023-02-19T22:51:14.581Z,4.18
2023-02-19T22:53:47.850Z,4.65
2023-02-19T22:56:18.068Z,4.47
2023-02-19T22:58:46.677Z,5.07
2023-02-19T23:01:15.596Z,4.80
2023-02-19T23:03:48.572Z,5.07
2023-02-19T23:06:17.565Z,5.07
2023-02-19T23:08:46.714Z,4.28
2023-02-19T23:11:14.553Z,4.20
2023-02-19T23:13:43.224Z,4.28
2023-02-19T23:16:11.796Z,4.72
2023-02-19T23:18:39.880Z,3.85
2023-02-19T23:21:09.475Z,3.67
2023-02-19T23:23:37.148Z,3.83
2023-02-19T23:26:07.154Z,3.65
2023-02-19T23:28:35.382Z,3.67
2023-02-19T23:31:03.164Z,3.53
2023-02-19T23:33:30.928Z,3.55
2023-02-19T23:35:58.741Z,3.50
2023-02-19T23:38:26.672Z,4.10
2023-02-19T23:40:54.372Z,3.88
2023-02-19T23:43:23.391Z,3.80
2023-02-19T23:45:51.146Z,3.85
2023-02-19T23:48:18.951Z,4.47
2023-02-19T23:50:46.909Z,4.07
2023-02-19T23:53:14.746Z,4.95
2023-02-19T23:55:42.439Z,4.63
2023-02-19T23:58:10.264Z,3.47
